ZMUB/ULN METAR and TAF weather

Enter ICAO airport designator
Station Type Date Time Source
ZMUB METAR 2020/11/27 14:30 UTC NOAA

ZMUB 271430Z 18002MPS 6000NW NSC M29/M32 Q1034 NOSIG RMK QFE666.7 70 NT


Station Type Date Time Source
ZMUB Decoded METAR 2020/11/27 14:30 UTC NOAA

Ulan-Bator, Mongolia (ZMUB) 47-51N 106-46E
Nov 27, 2020 - 09:30 AM EST / 2020.11.27 1430 UTC
Wind: from the S (180 degrees) at 4 MPH (4 KT):0
Visibility: 3 mile(s):0
Temperature: -20 F (-29 C)
Dew Point: -25 F (-32 C)
Relative Humidity: 75%
Pressure (altimeter): 30.53 in. Hg (1034 hPa)
ob: ZMUB 271430Z 18002MPS 6000NW NSC M29/M32 Q1034 NOSIG RMK QFE666.7 70 NT
cycle: 14

Station Type Date Time Source
ZMUB TAF 2020/11/27 12:51 UTC NOAA

TAF TAF ZMUB 271047Z 2712/2818 VRB02MPS 6000 SCT100 TNM29/2723Z TXM16/2807Z

Example: see airport list